Time;durP1;ratioP1;P1;durP2;ratioP2;P2;SDS_P1;SDS_P2;PMS_P1;PMS_P2;Temp;Humidity;BMP_temperature;BMP_pressure;BME280_temperature;BME280_humidity;BME280_pressure;Samples;Min_cycle;Max_cycle;Signal;HPM_P1;HPM_P2
2022/11/24 00:02:02;;;;;;;29.45;5.07;;;;;;;;;;5015115;28;93184;-69
2022/11/24 00:04:29;;;;;;;28.75;4.75;;;;;;;;;;5014198;28;93759;-68
2022/11/24 00:06:55;;;;;;;31.27;5.28;;;;;;;;;;5010114;28;92428;-68
2022/11/24 00:09:22;;;;;;;25.63;5.72;;;;;;;;;;5011174;28;93449;-68
2022/11/24 00:11:48;;;;;;;28.38;4.57;;;;;;;;;;5013207;28;92786;-68
2022/11/24 00:14:14;;;;;;;29.20;4.68;;;;;;;;;;5014382;28;92518;-68
2022/11/24 00:16:41;;;;;;;28.55;5.40;;;;;;;;;;5011485;28;93407;-68
2022/11/24 00:19:08;;;;;;;30.25;5.05;;;;;;;;;;5012132;28;96404;-68
2022/11/24 00:21:35;;;;;;;26.42;4.68;;;;;;;;;;5026155;27;96176;-68
2022/11/24 00:24:01;;;;;;;27.25;4.28;;;;;;;;;;5014534;27;93369;-68
2022/11/24 00:26:29;;;;;;;16.25;3.67;;;;;;;;;;5014415;28;92480;-68
2022/11/24 00:28:56;;;;;;;23.55;3.80;;;;;;;;;;5015030;28;92675;-68
2022/11/24 00:31:24;;;;;;;22.25;4.18;;;;;;;;;;5009653;28;93265;-68
2022/11/24 00:33:51;;;;;;;20.10;4.00;;;;;;;;;;5015620;28;92457;-68
2022/11/24 00:36:18;;;;;;;32.70;4.80;;;;;;;;;;5014519;28;91767;-68
2022/11/24 00:38:45;;;;;;;34.42;5.18;;;;;;;;;;5013493;28;93559;-68
2022/11/24 00:41:12;;;;;;;35.65;5.05;;;;;;;;;;5010500;28;92375;-68
2022/11/24 00:43:38;;;;;;;29.13;4.90;;;;;;;;;;5013684;28;95893;-68
2022/11/24 00:46:04;;;;;;;26.65;3.67;;;;;;;;;;5014639;28;92607;-68
2022/11/24 00:48:31;;;;;;;30.77;5.45;;;;;;;;;;5014680;28;93584;-68
2022/11/24 00:50:58;;;;;;;23.27;5.22;;;;;;;;;;5015041;28;94501;-68
2022/11/24 00:53:25;;;;;;;32.50;5.50;;;;;;;;;;5014407;28;92462;-68
2022/11/24 00:55:51;;;;;;;22.63;5.03;;;;;;;;;;5013694;28;93502;-68
2022/11/24 00:58:17;;;;;;;30.95;4.97;;;;;;;;;;4996425;28;93802;-68
2022/11/24 01:00:44;;;;;;;30.70;5.82;;;;;;;;;;5014538;28;91684;-68
2022/11/24 01:03:11;;;;;;;33.97;5.32;;;;;;;;;;5017711;28;95253;-67
2022/11/24 01:05:38;;;;;;;26.50;5.53;;;;;;;;;;5012056;28;94003;-68
2022/11/24 01:08:04;;;;;;;30.85;4.35;;;;;;;;;;5011908;28;95397;-69
2022/11/24 01:10:31;;;;;;;30.42;4.22;;;;;;;;;;5010988;28;93760;-68
2022/11/24 01:12:58;;;;;;;27.63;4.53;;;;;;;;;;5013909;28;92511;-68
2022/11/24 01:15:24;;;;;;;31.83;4.63;;;;;;;;;;5014099;28;93165;-68
2022/11/24 01:17:51;;;;;;;24.77;3.88;;;;;;;;;;5014495;28;93380;-68
2022/11/24 01:20:17;;;;;;;21.65;4.47;;;;;;;;;;5013924;27;92501;-68
2022/11/24 01:22:46;;;;;;;25.95;4.38;;;;;;;;;;5015076;28;94218;-68
2022/11/24 01:25:12;;;;;;;35.90;5.18;;;;;;;;;;5016620;28;92677;-68
2022/11/24 01:27:39;;;;;;;33.97;4.78;;;;;;;;;;5014277;28;92453;-68
2022/11/24 01:30:06;;;;;;;28.27;5.32;;;;;;;;;;5013501;28;93557;-68
2022/11/24 01:32:33;;;;;;;24.17;4.22;;;;;;;;;;5011572;28;95530;-69
2022/11/24 01:34:59;;;;;;;25.80;4.80;;;;;;;;;;5013401;28;95582;-68
2022/11/24 01:37:25;;;;;;;43.00;5.75;;;;;;;;;;5010499;28;93384;-69
2022/11/24 01:39:52;;;;;;;33.55;3.88;;;;;;;;;;5013627;28;92554;-69
2022/11/24 01:42:18;;;;;;;29.05;4.28;;;;;;;;;;5013636;28;93145;-69
2022/11/24 01:44:44;;;;;;;16.52;2.90;;;;;;;;;;5014945;28;93783;-69
2022/11/24 01:47:10;;;;;;;22.48;4.13;;;;;;;;;;5013504;28;93232;-68
2022/11/24 01:49:39;;;;;;;21.73;5.05;;;;;;;;;;5013975;28;93668;-68
2022/11/24 01:52:09;;;;;;;18.60;4.00;;;;;;;;;;5014110;28;92526;-68
2022/11/24 01:54:37;;;;;;;25.83;3.97;;;;;;;;;;5014854;28;94603;-69
2022/11/24 01:57:10;;;;;;;34.70;5.75;;;;;;;;;;5009971;28;96278;-68
2022/11/24 01:59:36;;;;;;;25.38;4.88;;;;;;;;;;5012944;28;92483;-68
2022/11/24 02:02:03;;;;;;;20.00;2.97;;;;;;;;;;5000397;28;93452;-69
2022/11/24 02:04:31;;;;;;;16.30;3.55;;;;;;;;;;5014268;28;93477;-69
2022/11/24 02:07:00;;;;;;;24.73;3.78;;;;;;;;;;5015372;28;92639;-69
2022/11/24 02:09:31;;;;;;;20.33;3.30;;;;;;;;;;5014002;28;93717;-68
2022/11/24 02:11:58;;;;;;;25.30;4.75;;;;;;;;;;5015921;28;92604;-69
2022/11/24 02:14:25;;;;;;;21.60;3.95;;;;;;;;;;5018337;28;93886;-69
2022/11/24 02:16:52;;;;;;;19.63;3.35;;;;;;;;;;5017540;28;93736;-68
2022/11/24 02:19:27;;;;;;;20.67;3.50;;;;;;;;;;5016462;28;92669;-68
2022/11/24 02:21:53;;;;;;;25.27;4.78;;;;;;;;;;5009258;28;94897;-68
2022/11/24 02:24:46;;;;;;;21.15;3.25;;;;;;;;;;5017749;28;94132;-69
2022/11/24 02:27:12;;;;;;;21.25;2.85;;;;;;;;;;5014853;28;92685;-69
2022/11/24 02:29:38;;;;;;;17.88;3.53;;;;;;;;;;5018247;28;93155;-69
2022/11/24 02:32:06;;;;;;;19.65;3.35;;;;;;;;;;5016140;28;93184;-69
2022/11/24 02:34:32;;;;;;;19.80;3.33;;;;;;;;;;5014876;28;94219;-69
2022/11/24 02:36:59;;;;;;;19.13;2.80;;;;;;;;;;5013557;28;93776;-69
2022/11/24 02:39:25;;;;;;;19.75;2.67;;;;;;;;;;5013409;27;92365;-69
2022/11/24 02:41:53;;;;;;;22.83;4.03;;;;;;;;;;5006101;28;92742;-69
2022/11/24 02:44:20;;;;;;;25.70;3.42;;;;;;;;;;5013902;28;93979;-69
2022/11/24 02:46:47;;;;;;;24.10;3.63;;;;;;;;;;5014114;28;95005;-69
2022/11/24 02:49:14;;;;;;;22.58;4.72;;;;;;;;;;5015722;28;95537;-69
2022/11/24 02:51:40;;;;;;;20.98;3.55;;;;;;;;;;5019559;28;93425;-69
2022/11/24 02:54:07;;;;;;;26.52;4.13;;;;;;;;;;5015229;27;93165;-69
2022/11/24 02:56:33;;;;;;;17.23;3.33;;;;;;;;;;5016021;28;93508;-69
2022/11/24 02:58:59;;;;;;;20.50;3.42;;;;;;;;;;5015016;28;92381;-70
2022/11/24 03:01:26;;;;;;;16.20;3.53;;;;;;;;;;5013456;28;94693;-69
2022/11/24 03:03:52;;;;;;;18.02;3.00;;;;;;;;;;5014572;28;93625;-69
2022/11/24 03:06:18;;;;;;;19.75;3.28;;;;;;;;;;5016229;28;92456;-69
2022/11/24 03:08:44;;;;;;;40.35;5.22;;;;;;;;;;5015026;28;93566;-69
2022/11/24 03:11:11;;;;;;;18.25;3.88;;;;;;;;;;5013673;28;94856;-69
2022/11/24 03:13:37;;;;;;;19.45;3.67;;;;;;;;;;5018471;28;92483;-69
2022/11/24 03:16:06;;;;;;;25.45;3.90;;;;;;;;;;5016616;28;93335;-69
2022/11/24 03:18:32;;;;;;;19.50;4.05;;;;;;;;;;5014817;28;92450;-69
2022/11/24 03:20:59;;;;;;;22.23;2.85;;;;;;;;;;5015450;28;93801;-68
2022/11/24 03:23:25;;;;;;;23.88;4.20;;;;;;;;;;5014151;28;93374;-68
2022/11/24 03:25:51;;;;;;;19.77;3.65;;;;;;;;;;5015191;28;92483;-68
2022/11/24 03:28:18;;;;;;;19.52;3.83;;;;;;;;;;5016028;28;93424;-70
2022/11/24 03:30:46;;;;;;;23.60;4.28;;;;;;;;;;5015834;28;92617;-68
2022/11/24 03:33:13;;;;;;;21.13;4.20;;;;;;;;;;5014297;28;92461;-68
2022/11/24 03:35:39;;;;;;;23.30;3.80;;;;;;;;;;5017651;28;94834;-68
2022/11/24 03:38:05;;;;;;;22.17;4.05;;;;;;;;;;5016029;28;92518;-68
2022/11/24 03:40:32;;;;;;;22.92;3.75;;;;;;;;;;5015068;28;96359;-68
2022/11/24 03:42:58;;;;;;;25.35;4.10;;;;;;;;;;5014300;28;93583;-68
2022/11/24 03:45:24;;;;;;;17.88;3.70;;;;;;;;;;5014132;28;92459;-68
2022/11/24 03:48:11;;;;;;;22.13;3.85;;;;;;;;;;5013509;28;93275;-68
2022/11/24 03:50:37;;;;;;;19.05;3.50;;;;;;;;;;5014270;28;93789;-68
2022/11/24 03:53:03;;;;;;;19.98;3.13;;;;;;;;;;5015977;28;91730;-68
2022/11/24 03:55:30;;;;;;;24.98;3.47;;;;;;;;;;5016286;27;94825;-68
2022/11/24 03:57:56;;;;;;;19.27;3.88;;;;;;;;;;5014380;28;93237;-68
2022/11/24 04:00:22;;;;;;;28.30;4.22;;;;;;;;;;5011818;28;94846;-70
2022/11/24 04:02:48;;;;;;;26.38;4.15;;;;;;;;;;5013920;28;94242;-69
2022/11/24 04:05:15;;;;;;;15.75;3.25;;;;;;;;;;5012350;28;92471;-68
2022/11/24 04:07:41;;;;;;;20.50;4.18;;;;;;;;;;5011838;28;94261;-69
2022/11/24 04:10:07;;;;;;;23.48;3.70;;;;;;;;;;5028579;28;94063;-69
2022/11/24 04:12:43;;;;;;;29.60;3.75;;;;;;;;;;5014154;28;92448;-69
2022/11/24 04:15:10;;;;;;;17.48;3.50;;;;;;;;;;5012753;28;93253;-70
2022/11/24 04:17:36;;;;;;;20.08;3.45;;;;;;;;;;5017168;28;93040;-69
2022/11/24 04:20:04;;;;;;;28.45;3.80;;;;;;;;;;5013489;28;93680;-68
2022/11/24 04:22:30;;;;;;;20.95;3.35;;;;;;;;;;5013088;28;93054;-69
2022/11/24 04:24:56;;;;;;;33.83;4.47;;;;;;;;;;5009925;28;97001;-69
2022/11/24 04:27:22;;;;;;;24.63;3.70;;;;;;;;;;5025771;27;95597;-69
2022/11/24 04:29:49;;;;;;;24.13;3.85;;;;;;;;;;5016096;27;92542;-69
2022/11/24 04:32:16;;;;;;;18.52;3.20;;;;;;;;;;5011300;27;93102;-69
2022/11/24 04:34:42;;;;;;;20.40;3.25;;;;;;;;;;5014063;28;93644;-69
2022/11/24 04:37:09;;;;;;;23.15;4.25;;;;;;;;;;5029983;28;95440;-68
2022/11/24 04:39:35;;;;;;;24.77;3.70;;;;;;;;;;4984612;27;1123978;-68
2022/11/24 04:42:01;;;;;;;24.45;3.65;;;;;;;;;;5012076;28;92676;-68
2022/11/24 04:44:27;;;;;;;20.40;3.42;;;;;;;;;;5025139;27;92505;-69
2022/11/24 04:46:54;;;;;;;28.45;4.03;;;;;;;;;;5013310;28;93175;-69
2022/11/24 04:49:20;;;;;;;24.70;4.20;;;;;;;;;;5011548;28;97131;-68
2022/11/24 04:51:46;;;;;;;24.02;3.75;;;;;;;;;;5023570;28;92453;-69
2022/11/24 04:54:12;;;;;;;17.60;3.65;;;;;;;;;;5015369;28;93196;-69
2022/11/24 04:56:40;;;;;;;15.82;3.10;;;;;;;;;;5026781;28;93742;-69
2022/11/24 04:59:06;;;;;;;27.83;4.72;;;;;;;;;;5033051;27;92754;-69
2022/11/24 05:01:34;;;;;;;21.33;3.63;;;;;;;;;;5024366;28;93444;-70
2022/11/24 05:04:00;;;;;;;17.20;3.20;;;;;;;;;;5020190;27;94103;-69
2022/11/24 05:06:26;;;;;;;16.27;3.20;;;;;;;;;;5016201;28;93334;-69
2022/11/24 05:08:53;;;;;;;19.90;3.53;;;;;;;;;;5015536;27;93357;-68
2022/11/24 05:11:19;;;;;;;16.83;3.40;;;;;;;;;;5029630;27;92491;-68
2022/11/24 05:13:45;;;;;;;18.02;3.33;;;;;;;;;;5017564;28;95291;-69
2022/11/24 05:16:12;;;;;;;15.65;3.58;;;;;;;;;;5021013;27;93874;-69
2022/11/24 05:18:38;;;;;;;12.32;2.85;;;;;;;;;;5016161;28;92509;-69
2022/11/24 05:21:04;;;;;;;16.30;3.28;;;;;;;;;;5017331;28;93006;-68
2022/11/24 05:23:31;;;;;;;20.30;3.22;;;;;;;;;;5032298;28;93456;-69
2022/11/24 05:26:00;;;;;;;17.30;3.10;;;;;;;;;;5019780;28;93251;-69
2022/11/24 05:28:27;;;;;;;18.17;3.72;;;;;;;;;;5012339;28;94258;-68
2022/11/24 05:30:53;;;;;;;8.10;2.63;;;;;;;;;;5013108;28;91713;-69
2022/11/24 05:33:21;;;;;;;12.32;2.75;;;;;;;;;;5022418;28;93466;-69
2022/11/24 05:35:48;;;;;;;15.30;3.00;;;;;;;;;;5023240;28;93439;-69
2022/11/24 05:38:15;;;;;;;7.22;2.30;;;;;;;;;;5010599;28;95139;-69
2022/11/24 05:40:42;;;;;;;11.23;2.65;;;;;;;;;;5013493;28;95738;-69
2022/11/24 05:43:12;;;;;;;9.07;2.30;;;;;;;;;;5013076;28;93130;-69
2022/11/24 05:45:38;;;;;;;11.40;2.78;;;;;;;;;;5016342;28;92405;-69
2022/11/24 05:48:06;;;;;;;9.65;2.05;;;;;;;;;;5014922;28;93795;-69
2022/11/24 05:50:32;;;;;;;8.40;2.28;;;;;;;;;;5013733;28;93851;-69
2022/11/24 05:53:06;;;;;;;8.02;2.08;;;;;;;;;;5012925;28;93192;-69
2022/11/24 05:55:33;;;;;;;10.15;1.92;;;;;;;;;;5012989;28;95456;-69
2022/11/24 05:58:00;;;;;;;8.30;1.88;;;;;;;;;;5013873;28;92519;-69
2022/11/24 06:00:27;;;;;;;6.72;1.73;;;;;;;;;;5014104;28;93183;-69
2022/11/24 06:02:55;;;;;;;9.73;2.45;;;;;;;;;;5011014;28;96960;-68
2022/11/24 06:05:21;;;;;;;7.10;2.25;;;;;;;;;;5017122;28;92430;-69
2022/11/24 06:07:48;;;;;;;6.55;1.77;;;;;;;;;;5012535;28;93604;-68
2022/11/24 06:10:15;;;;;;;7.90;2.22;;;;;;;;;;5012167;28;92437;-69
2022/11/24 06:12:42;;;;;;;5.38;1.92;;;;;;;;;;5008835;28;93141;-68
2022/11/24 06:15:08;;;;;;;6.30;1.35;;;;;;;;;;5012036;28;95006;-69
2022/11/24 06:17:34;;;;;;;7.15;1.50;;;;;;;;;;5011823;28;92507;-69
2022/11/24 06:20:01;;;;;;;6.05;1.80;;;;;;;;;;5013533;28;92912;-69
2022/11/24 06:22:27;;;;;;;11.95;1.90;;;;;;;;;;5013459;28;93487;-69
2022/11/24 06:24:53;;;;;;;3.88;1.98;;;;;;;;;;5014443;28;92464;-69
2022/11/24 06:27:19;;;;;;;5.70;2.15;;;;;;;;;;5014225;27;94785;-69
2022/11/24 06:29:46;;;;;;;6.85;2.60;;;;;;;;;;5013160;28;92412;-69
2022/11/24 06:32:12;;;;;;;3.95;1.77;;;;;;;;;;5008598;28;93421;-69
2022/11/24 06:34:39;;;;;;;4.95;2.05;;;;;;;;;;5014159;28;94442;-69
2022/11/24 06:37:05;;;;;;;7.68;2.05;;;;;;;;;;5013277;27;92631;-69
2022/11/24 06:39:31;;;;;;;6.03;2.90;;;;;;;;;;5013025;28;93115;-69
2022/11/24 06:41:58;;;;;;;10.27;3.05;;;;;;;;;;5007792;28;93787;-69
2022/11/24 06:44:24;;;;;;;9.23;2.80;;;;;;;;;;5013563;28;91692;-69
2022/11/24 06:46:50;;;;;;;8.18;3.17;;;;;;;;;;5013587;28;92900;-68
2022/11/24 06:49:17;;;;;;;10.55;3.42;;;;;;;;;;5017520;28;93411;-69
2022/11/24 06:51:43;;;;;;;9.35;3.88;;;;;;;;;;5007759;28;94954;-69
2022/11/24 06:54:12;;;;;;;7.22;3.83;;;;;;;;;;5012963;28;94875;-69
2022/11/24 06:56:38;;;;;;;11.05;4.50;;;;;;;;;;5015399;28;92437;-69
2022/11/24 06:59:05;;;;;;;11.60;4.80;;;;;;;;;;5014496;28;93170;-68
2022/11/24 07:01:31;;;;;;;9.13;4.10;;;;;;;;;;5015811;27;95535;-69
2022/11/24 07:03:57;;;;;;;8.55;3.90;;;;;;;;;;5016522;28;92423;-69
2022/11/24 07:06:24;;;;;;;8.63;4.28;;;;;;;;;;5015762;28;94471;-69
2022/11/24 07:08:51;;;;;;;9.43;4.35;;;;;;;;;;5017706;28;93008;-69
2022/11/24 07:11:19;;;;;;;11.55;5.35;;;;;;;;;;5019569;28;92426;-70
2022/11/24 07:13:46;;;;;;;7.82;4.90;;;;;;;;;;5014334;28;93799;-69
2022/11/24 07:16:13;;;;;;;11.18;5.35;;;;;;;;;;5014764;28;94843;-70
2022/11/24 07:18:39;;;;;;;8.70;5.10;;;;;;;;;;5014686;28;95861;-68
2022/11/24 07:21:06;;;;;;;8.85;5.20;;;;;;;;;;5021849;28;94568;-70
2022/11/24 07:23:32;;;;;;;10.25;5.28;;;;;;;;;;5015041;28;92530;-69
2022/11/24 07:26:00;;;;;;;14.32;5.85;;;;;;;;;;5024411;27;93744;-69
2022/11/24 07:28:32;;;;;;;11.00;5.60;;;;;;;;;;5016767;28;93372;-69
2022/11/24 07:31:03;;;;;;;12.65;6.25;;;;;;;;;;5015598;28;92436;-69
2022/11/24 07:33:29;;;;;;;9.43;5.93;;;;;;;;;;5018375;28;93485;-69
2022/11/24 07:35:58;;;;;;;13.27;6.18;;;;;;;;;;5016481;28;92331;-69
2022/11/24 07:38:24;;;;;;;11.95;6.53;;;;;;;;;;5025443;28;93282;-69
2022/11/24 07:40:50;;;;;;;10.52;6.10;;;;;;;;;;5013426;28;95807;-68
2022/11/24 07:43:16;;;;;;;18.13;6.82;;;;;;;;;;5015681;28;92475;-69
2022/11/24 07:45:50;;;;;;;11.60;5.93;;;;;;;;;;5021108;28;93606;-69
2022/11/24 07:48:16;;;;;;;9.15;6.05;;;;;;;;;;5019093;27;92414;-69
2022/11/24 07:50:43;;;;;;;14.35;6.45;;;;;;;;;;5014191;28;92432;-69
2022/11/24 07:53:09;;;;;;;11.30;6.28;;;;;;;;;;5018405;28;93245;-69
2022/11/24 07:55:35;;;;;;;13.23;6.65;;;;;;;;;;5017687;28;92625;-68
2022/11/24 07:58:02;;;;;;;11.57;6.07;;;;;;;;;;5013172;28;93445;-69
2022/11/24 08:00:28;;;;;;;14.40;6.20;;;;;;;;;;5014499;28;93850;-69
2022/11/24 08:02:54;;;;;;;17.05;7.22;;;;;;;;;;5014331;28;92461;-69
2022/11/24 08:05:21;;;;;;;12.73;6.93;;;;;;;;;;5017117;28;94758;-70
2022/11/24 08:07:47;;;;;;;13.40;6.97;;;;;;;;;;5034762;27;94216;-69
2022/11/24 08:10:14;;;;;;;16.73;7.43;;;;;;;;;;5020287;27;94099;-70
2022/11/24 08:12:40;;;;;;;15.18;7.45;;;;;;;;;;5014716;28;93494;-70
2022/11/24 08:15:09;;;;;;;11.43;7.00;;;;;;;;;;5018201;28;93486;-70
2022/11/24 08:17:36;;;;;;;14.65;6.22;;;;;;;;;;5028919;27;94434;-70
2022/11/24 08:20:03;;;;;;;18.40;7.25;;;;;;;;;;5014688;28;93773;-70
2022/11/24 08:22:29;;;;;;;12.85;6.53;;;;;;;;;;5014679;28;91816;-69
2022/11/24 08:24:55;;;;;;;13.07;7.13;;;;;;;;;;5014866;28;92918;-69
2022/11/24 08:27:22;;;;;;;10.63;6.20;;;;;;;;;;5014227;28;93398;-69
2022/11/24 08:29:48;;;;;;;10.52;6.55;;;;;;;;;;5011234;28;94861;-69
2022/11/24 08:32:15;;;;;;;14.23;6.57;;;;;;;;;;5014942;28;96637;-69
2022/11/24 08:34:47;;;;;;;15.07;5.90;;;;;;;;;;5013563;28;94755;-69
2022/11/24 08:37:13;;;;;;;18.25;6.65;;;;;;;;;;5018519;28;92507;-70
2022/11/24 08:39:40;;;;;;;15.77;6.85;;;;;;;;;;5014991;28;93394;-69
2022/11/24 08:42:06;;;;;;;18.50;6.68;;;;;;;;;;5013040;28;92537;-68
2022/11/24 08:44:32;;;;;;;11.52;5.30;;;;;;;;;;5014834;28;92650;-68
2022/11/24 08:46:59;;;;;;;17.65;6.82;;;;;;;;;;5014690;28;92679;-69
2022/11/24 08:49:26;;;;;;;15.52;6.07;;;;;;;;;;5013951;28;92464;-67
2022/11/24 08:51:52;;;;;;;10.00;5.18;;;;;;;;;;5013292;28;94185;-68
2022/11/24 08:54:19;;;;;;;16.35;5.75;;;;;;;;;;5012332;28;98525;-69
2022/11/24 08:56:47;;;;;;;12.82;4.90;;;;;;;;;;5013286;28;92445;-68
2022/11/24 08:59:14;;;;;;;10.80;5.28;;;;;;;;;;5016583;28;93086;-68
2022/11/24 09:01:40;;;;;;;12.32;5.05;;;;;;;;;;5013554;28;92494;-68
2022/11/24 09:04:07;;;;;;;18.27;5.82;;;;;;;;;;5013658;28;93203;-68
2022/11/24 09:06:33;;;;;;;12.75;4.20;;;;;;;;;;5014074;28;94127;-68
2022/11/24 09:09:00;;;;;;;13.35;5.32;;;;;;;;;;5015679;28;92379;-68
2022/11/24 09:11:26;;;;;;;14.65;4.65;;;;;;;;;;5014363;28;94055;-69
2022/11/24 09:13:53;;;;;;;15.15;4.15;;;;;;;;;;5014375;28;94255;-69
2022/11/24 09:16:21;;;;;;;13.77;4.20;;;;;;;;;;5014704;28;93861;-69
2022/11/24 09:18:53;;;;;;;17.10;5.15;;;;;;;;;;5012152;28;96564;-69
2022/11/24 09:21:20;;;;;;;13.50;3.90;;;;;;;;;;5016761;28;93813;-69
2022/11/24 09:23:50;;;;;;;11.88;3.97;;;;;;;;;;5013487;28;92451;-69
2022/11/24 09:26:18;;;;;;;9.32;4.28;;;;;;;;;;5011499;28;93651;-69
2022/11/24 09:28:44;;;;;;;16.40;4.55;;;;;;;;;;5013905;27;92541;-69
2022/11/24 09:31:12;;;;;;;21.88;4.75;;;;;;;;;;5012564;28;94220;-69
2022/11/24 09:33:39;;;;;;;12.48;3.53;;;;;;;;;;5012138;28;93394;-69
2022/11/24 09:36:06;;;;;;;12.70;3.50;;;;;;;;;;5016872;28;91821;-69
2022/11/24 09:38:32;;;;;;;14.55;3.97;;;;;;;;;;5014797;28;92490;-69
2022/11/24 09:41:25;;;;;;;15.90;3.83;;;;;;;;;;5013516;28;93901;-68
2022/11/24 09:44:06;;;;;;;19.10;3.53;;;;;;;;;;5006892;28;94941;-69
2022/11/24 09:47:08;;;;;;;14.70;3.58;;;;;;;;;;5012268;28;93423;-69
2022/11/24 09:49:48;;;;;;;21.55;4.20;;;;;;;;;;4966154;28;92636;-69
2022/11/24 09:52:19;;;;;;;14.38;3.05;;;;;;;;;;4972066;28;93166;-69
2022/11/24 09:54:51;;;;;;;12.15;3.13;;;;;;;;;;4968380;28;94504;-68
2022/11/24 09:57:20;;;;;;;16.45;4.15;;;;;;;;;;4984791;28;92542;-67
2022/11/24 09:59:46;;;;;;;14.20;3.22;;;;;;;;;;4976059;28;93652;-69
2022/11/24 10:02:13;;;;;;;13.02;2.85;;;;;;;;;;4968044;28;93577;-67
2022/11/24 10:04:43;;;;;;;15.95;3.45;;;;;;;;;;4976037;28;93521;-68
2022/11/24 10:07:19;;;;;;;13.48;3.30;;;;;;;;;;4977906;28;93477;-67
2022/11/24 10:09:49;;;;;;;8.65;3.13;;;;;;;;;;4983825;28;95184;-68
2022/11/24 10:12:27;;;;;;;18.00;4.43;;;;;;;;;;4969506;28;96757;-68
2022/11/24 10:14:58;;;;;;;12.70;2.95;;;;;;;;;;4981505;28;92508;-68
2022/11/24 10:17:30;;;;;;;13.93;3.30;;;;;;;;;;4950732;28;92668;-69
2022/11/24 10:20:02;;;;;;;16.40;2.97;;;;;;;;;;4971613;28;93152;-67
2022/11/24 10:22:35;;;;;;;13.05;3.28;;;;;;;;;;4966374;28;94398;-69
2022/11/24 10:25:02;;;;;;;18.77;3.50;;;;;;;;;;5011777;28;92652;-68
2022/11/24 10:27:38;;;;;;;17.80;2.92;;;;;;;;;;5016898;28;93347;-68
2022/11/24 10:30:11;;;;;;;12.15;3.65;;;;;;;;;;5008225;28;92483;-68
2022/11/24 10:32:40;;;;;;;16.77;2.90;;;;;;;;;;5033447;28;93196;-68
2022/11/24 10:35:17;;;;;;;10.18;2.85;;;;;;;;;;5035740;27;95833;-68
2022/11/24 10:38:02;;;;;;;12.52;3.40;;;;;;;;;;5037870;27;92571;-68
2022/11/24 10:40:45;;;;;;;10.50;3.20;;;;;;;;;;5015248;28;95701;-68
2022/11/24 10:43:28;;;;;;;9.77;2.60;;;;;;;;;;5016268;28;93936;-68
2022/11/24 10:45:59;;;;;;;16.83;4.28;;;;;;;;;;5021924;27;92454;-67
2022/11/24 10:48:28;;;;;;;14.15;2.75;;;;;;;;;;5017052;28;93616;-68
2022/11/24 10:51:05;;;;;;;18.38;3.72;;;;;;;;;;5018738;28;93398;-68
2022/11/24 10:53:33;;;;;;;13.02;3.38;;;;;;;;;;5005961;28;93205;-67
2022/11/24 10:56:00;;;;;;;15.15;3.42;;;;;;;;;;5025581;28;93558;-66
2022/11/24 10:58:36;;;;;;;15.57;3.42;;;;;;;;;;5017229;28;92429;-67
2022/11/24 11:01:13;;;;;;;12.75;3.67;;;;;;;;;;5014532;28;94773;-67
2022/11/24 11:03:50;;;;;;;11.05;3.05;;;;;;;;;;5016636;28;93494;-66
2022/11/24 11:06:21;;;;;;;15.40;3.70;;;;;;;;;;5025010;28;92578;-67
2022/11/24 11:08:47;;;;;;;15.98;3.70;;;;;;;;;;5008011;28;94036;-68
2022/11/24 11:11:18;;;;;;;14.18;3.58;;;;;;;;;;5024272;27;93795;-67
2022/11/24 11:13:51;;;;;;;16.85;4.05;;;;;;;;;;5018951;28;92481;-67
2022/11/24 11:16:40;;;;;;;23.00;3.85;;;;;;;;;;5018287;28;94216;-67
2022/11/24 11:19:25;;;;;;;13.75;3.33;;;;;;;;;;5019493;27;91819;-67
2022/11/24 11:22:24;;;;;;;15.65;4.10;;;;;;;;;;4997324;28;92320;-67
2022/11/24 11:25:03;;;;;;;19.58;3.97;;;;;;;;;;5022855;28;94822;-67
2022/11/24 11:27:29;;;;;;;19.83;4.20;;;;;;;;;;5035515;27;94889;-67
2022/11/24 11:30:15;;;;;;;23.20;4.78;;;;;;;;;;5014875;27;96135;-67
2022/11/24 11:33:02;;;;;;;13.05;3.50;;;;;;;;;;5013065;28;93048;-68
2022/11/24 11:35:48;;;;;;;20.30;4.75;;;;;;;;;;5016336;28;92390;-68
2022/11/24 11:38:15;;;;;;;23.40;4.55;;;;;;;;;;5019185;28;93566;-68
2022/11/24 11:40:42;;;;;;;18.40;4.78;;;;;;;;;;5016317;28;92524;-67
2022/11/24 11:43:14;;;;;;;19.75;4.47;;;;;;;;;;5035386;28;93212;-67
2022/11/24 11:45:43;;;;;;;13.65;4.05;;;;;;;;;;5030934;27;93045;-68
2022/11/24 11:48:24;;;;;;;16.33;3.93;;;;;;;;;;5031640;27;92454;-67
2022/11/24 11:50:53;;;;;;;18.33;3.97;;;;;;;;;;5014320;28;93489;-68
2022/11/24 11:53:43;;;;;;;13.68;4.25;;;;;;;;;;5013950;28;95994;-68
2022/11/24 11:56:25;;;;;;;15.15;4.68;;;;;;;;;;5016993;28;92320;-68
2022/11/24 11:58:57;;;;;;;23.45;4.80;;;;;;;;;;5012552;28;93863;-68
2022/11/24 12:01:24;;;;;;;21.50;4.53;;;;;;;;;;5001074;28;93474;-68
2022/11/24 12:04:10;;;;;;;14.85;4.88;;;;;;;;;;5012782;28;93207;-68
2022/11/24 12:06:43;;;;;;;26.10;6.30;;;;;;;;;;5013827;28;96475;-68
2022/11/24 12:09:28;;;;;;;17.27;4.90;;;;;;;;;;5016847;28;92706;-69
2022/11/24 12:12:13;;;;;;;18.42;4.65;;;;;;;;;;5036214;27;93155;-68
2022/11/24 12:14:56;;;;;;;17.80;4.47;;;;;;;;;;5016259;28;94707;-69
2022/11/24 12:17:22;;;;;;;17.75;4.47;;;;;;;;;;5006704;28;92529;-69
2022/11/24 12:19:49;;;;;;;22.08;4.90;;;;;;;;;;5034809;27;94889;-69
2022/11/24 12:22:35;;;;;;;17.60;4.47;;;;;;;;;;5022780;27;93374;-69
2022/11/24 12:25:13;;;;;;;17.42;4.18;;;;;;;;;;5016657;28;93080;-68
2022/11/24 12:28:02;;;;;;;16.30;4.15;;;;;;;;;;5012553;28;93454;-68
2022/11/24 12:30:34;;;;;;;19.25;4.63;;;;;;;;;;5004198;28;93203;-69
2022/11/24 12:33:06;;;;;;;21.88;5.20;;;;;;;;;;5002538;28;93946;-68
2022/11/24 12:35:36;;;;;;;18.52;6.82;;;;;;;;;;4996880;28;93310;-68
2022/11/24 12:38:17;;;;;;;22.13;4.68;;;;;;;;;;5011923;28;92801;-68
2022/11/24 12:41:08;;;;;;;23.77;4.38;;;;;;;;;;5009073;28;92510;-68
2022/11/24 12:43:58;;;;;;;16.85;4.43;;;;;;;;;;4993381;28;94767;-68
2022/11/24 12:46:28;;;;;;;23.83;5.15;;;;;;;;;;4994832;28;95000;-68
2022/11/24 12:49:03;;;;;;;17.75;4.88;;;;;;;;;;4989987;28;93566;-68
2022/11/24 12:51:38;;;;;;;21.05;4.40;;;;;;;;;;4990486;28;93049;-68
2022/11/24 12:54:09;;;;;;;14.88;4.05;;;;;;;;;;4972621;28;93389;-67
2022/11/24 12:56:39;;;;;;;20.73;4.85;;;;;;;;;;4990465;28;93563;-68
2022/11/24 12:59:14;;;;;;;22.58;4.90;;;;;;;;;;4989041;28;92554;-67
2022/11/24 13:01:48;;;;;;;18.10;4.65;;;;;;;;;;4988015;28;93659;-68
2022/11/24 13:04:29;;;;;;;23.88;5.25;;;;;;;;;;5006512;28;93856;-67
2022/11/24 13:07:10;;;;;;;16.17;4.43;;;;;;;;;;4997594;28;93884;-68
2022/11/24 13:09:36;;;;;;;20.50;4.20;;;;;;;;;;5016270;28;93476;-67
2022/11/24 13:12:13;;;;;;;24.25;4.95;;;;;;;;;;5010465;28;95786;-67
2022/11/24 13:14:43;;;;;;;23.58;4.93;;;;;;;;;;5017752;28;95461;-66
2022/11/24 13:17:27;;;;;;;23.98;4.55;;;;;;;;;;5014825;28;93972;-68
2022/11/24 13:20:23;;;;;;;23.33;4.63;;;;;;;;;;5015090;28;92387;-68
2022/11/24 13:22:49;;;;;;;18.02;4.32;;;;;;;;;;5013858;28;93266;-68
2022/11/24 13:25:19;;;;;;;18.40;5.07;;;;;;;;;;5032191;27;93496;-68
2022/11/24 13:27:47;;;;;;;;;;;;;;;;;;5034264;28;92506;-68
2022/11/24 13:30:31;;;;;;;23.30;5.18;;;;;;;;;;5028790;28;123967;-68
2022/11/24 13:33:17;;;;;;;28.65;6.28;;;;;;;;;;5023223;27;93441;-68
2022/11/24 13:36:01;;;;;;;23.50;5.00;;;;;;;;;;4994927;28;93435;-67
2022/11/24 13:38:51;;;;;;;24.20;5.13;;;;;;;;;;4993012;28;95812;-68
2022/11/24 13:41:30;;;;;;;19.80;4.30;;;;;;;;;;5009234;28;92439;-67
2022/11/24 13:44:14;;;;;;;19.38;4.45;;;;;;;;;;5007091;28;93215;-67
2022/11/24 13:46:58;;;;;;;27.13;5.95;;;;;;;;;;5014273;28;93453;-68
2022/11/24 13:49:31;;;;;;;;;;;;;;;;;;5013506;28;92979;-67
2022/11/24 13:52:17;;;;;;;26.77;8.00;;;;;;;;;;5033142;28;122066;-68
2022/11/24 13:54:43;;;;;;;34.30;8.75;;;;;;;;;;5034554;27;93537;-68
2022/11/24 13:57:33;;;;;;;31.52;6.75;;;;;;;;;;5030179;27;91682;-68
2022/11/24 14:00:00;;;;;;;29.60;6.60;;;;;;;;;;5008457;28;94475;-68
2022/11/24 14:02:27;;;;;;;26.25;7.00;;;;;;;;;;5011694;28;92596;-67
2022/11/24 14:04:54;;;;;;;26.85;7.45;;;;;;;;;;5023364;28;95090;-68
2022/11/24 14:07:21;;;;;;;23.63;5.95;;;;;;;;;;5016435;28;94570;-67
2022/11/24 14:09:51;;;;;;;24.73;5.90;;;;;;;;;;5018727;28;92826;-68
2022/11/24 14:12:21;;;;;;;23.65;5.65;;;;;;;;;;5038694;27;93195;-68
2022/11/24 14:14:48;;;;;;;24.05;5.50;;;;;;;;;;5020590;27;93895;-68
2022/11/24 14:17:16;;;;;;;20.58;4.90;;;;;;;;;;5023272;28;93381;-68
2022/11/24 14:19:44;;;;;;;22.55;4.32;;;;;;;;;;5041220;27;93350;-68
2022/11/24 14:22:33;;;;;;;27.20;4.50;;;;;;;;;;5020037;27;91681;-68
2022/11/24 14:25:00;;;;;;;23.20;4.97;;;;;;;;;;5011921;28;92472;-67
2022/11/24 14:27:29;;;;;;;22.48;4.13;;;;;;;;;;5015400;28;93539;-67
2022/11/24 14:29:57;;;;;;;23.35;5.70;;;;;;;;;;5015801;28;94902;-67
2022/11/24 14:32:24;;;;;;;33.30;7.07;;;;;;;;;;5026204;28;96942;-67
2022/11/24 14:34:52;;;;;;;39.00;8.70;;;;;;;;;;5016516;28;93317;-63
2022/11/24 14:37:19;;;;;;;23.90;8.70;;;;;;;;;;5017856;28;92286;-63
2022/11/24 14:39:45;;;;;;;25.27;5.35;;;;;;;;;;5018127;28;93383;-63
2022/11/24 14:42:14;;;;;;;22.08;4.80;;;;;;;;;;5017324;28;92471;-65
2022/11/24 14:44:46;;;;;;;22.65;5.57;;;;;;;;;;5014768;28;93449;-64
2022/11/24 14:47:19;;;;;;;20.75;5.00;;;;;;;;;;5015666;28;92865;-65